Time;durP1;ratioP1;P1;durP2;ratioP2;P2;SDS_P1;SDS_P2;PMS_P1;PMS_P2;Temp;Humidity;BMP_temperature;BMP_pressure;BME280_temperature;BME280_humidity;BME280_pressure;Samples;Min_cycle;Max_cycle;Signal;HPM_P1;HPM_P2
2022/11/17 00:01:07;;;;;;;;;3.00;2.00;;;;;;;;5085106;28;61809;-83
2022/11/17 00:03:33;;;;;;;;;7.00;2.50;;;;;;;;5083627;27;62624;-83
2022/11/17 00:06:02;;;;;;;;;4.50;1.50;;;;;;;;5083896;27;63001;-83
2022/11/17 00:08:27;;;;;;;;;3.25;3.00;;;;;;;;5084278;28;61751;-83
2022/11/17 00:10:53;;;;;;;;;4.00;2.00;;;;;;;;5084727;27;61823;-84
2022/11/17 00:16:02;;;;;;;;;3.25;2.00;;;;;;;;5083973;27;62688;-83
2022/11/17 00:21:17;;;;;;;;;5.25;3.00;;;;;;;;5084756;28;61736;-83
2022/11/17 00:23:45;;;;;;;;;7.00;1.25;;;;;;;;5084069;28;61705;-84
2022/11/17 00:26:18;;;;;;;;;3.50;2.00;;;;;;;;5084215;28;61673;-83
2022/11/17 00:28:44;;;;;;;;;7.00;1.50;;;;;;;;5083844;27;62063;-83
2022/11/17 00:34:06;;;;;;;;;2.75;2.25;;;;;;;;5084306;28;61720;-84
2022/11/17 00:36:32;;;;;;;;;4.00;2.00;;;;;;;;5082492;27;63566;-83
2022/11/17 00:38:57;;;;;;;;;2.75;2.75;;;;;;;;5083722;28;62276;-83
2022/11/17 00:41:23;;;;;;;;;1.75;1.75;;;;;;;;5083915;27;61841;-83
2022/11/17 00:43:48;;;;;;;;;4.75;1.75;;;;;;;;5083990;27;61841;-84
2022/11/17 00:46:13;;;;;;;;;3.50;2.50;;;;;;;;5083534;28;61823;-84
2022/11/17 00:48:38;;;;;;;;;2.00;2.00;;;;;;;;5083787;27;61827;-84
2022/11/17 00:51:04;;;;;;;;;11.00;3.25;;;;;;;;5082531;27;61854;-84
2022/11/17 00:53:29;;;;;;;;;0.50;0.50;;;;;;;;5083953;28;62008;-84
2022/11/17 00:55:55;;;;;;;;;6.50;1.00;;;;;;;;5082842;27;61870;-84
2022/11/17 00:58:20;;;;;;;;;3.00;0.25;;;;;;;;5082581;28;62020;-84
2022/11/17 01:00:47;;;;;;;;;7.00;2.25;;;;;;;;5084270;28;61712;-83
2022/11/17 01:03:12;;;;;;;;;3.75;2.00;;;;;;;;5083907;27;61673;-83
2022/11/17 01:05:38;;;;;;;;;3.00;1.75;;;;;;;;5083247;28;62571;-84
2022/11/17 01:08:03;;;;;;;;;0.75;0.75;;;;;;;;5081683;27;61779;-84
2022/11/17 01:10:28;;;;;;;;;3.00;2.00;;;;;;;;5082070;27;61880;-84
2022/11/17 01:12:54;;;;;;;;;5.75;1.00;;;;;;;;5082540;27;61902;-82
2022/11/17 01:15:19;;;;;;;;;2.00;0.00;;;;;;;;5082992;28;61854;-84
2022/11/17 01:17:44;;;;;;;;;1.00;1.00;;;;;;;;5083962;27;61827;-84
2022/11/17 01:20:09;;;;;;;;;3.75;1.00;;;;;;;;5083095;28;61769;-83
2022/11/17 01:22:36;;;;;;;;;4.25;1.00;;;;;;;;5082126;27;62024;-83
2022/11/17 01:25:01;;;;;;;;;3.00;1.00;;;;;;;;5082421;28;62641;-84
2022/11/17 01:27:26;;;;;;;;;2.00;0.00;;;;;;;;5083360;28;61800;-84
2022/11/17 01:29:51;;;;;;;;;0.75;0.00;;;;;;;;5082807;28;61977;-83
2022/11/17 01:32:17;;;;;;;;;1.00;1.00;;;;;;;;5083615;28;61866;-84
2022/11/17 01:34:42;;;;;;;;;1.00;0.00;;;;;;;;5082755;28;62097;-84
2022/11/17 01:37:19;;;;;;;;;1.25;0.00;;;;;;;;5082982;28;62006;-83
2022/11/17 01:39:45;;;;;;;;;1.75;0.50;;;;;;;;5081516;27;61903;-83
2022/11/17 01:42:14;;;;;;;;;2.00;0.25;;;;;;;;5081909;27;61803;-85
2022/11/17 01:44:58;;;;;;;;;2.75;1.00;;;;;;;;5081149;27;63077;-83
2022/11/17 01:47:43;;;;;;;;;1.00;1.00;;;;;;;;5083305;28;61698;-84
2022/11/17 01:50:14;;;;;;;;;1.50;0.00;;;;;;;;5082467;28;61803;-83
2022/11/17 01:52:39;;;;;;;;;0.00;0.00;;;;;;;;5082890;27;62153;-82
2022/11/17 01:55:05;;;;;;;;;2.00;2.00;;;;;;;;5081607;27;61964;-83
2022/11/17 01:57:37;;;;;;;;;0.00;0.00;;;;;;;;5082080;27;62173;-84
2022/11/17 02:00:04;;;;;;;;;2.25;0.00;;;;;;;;5083265;28;61807;-83
2022/11/17 02:02:30;;;;;;;;;3.25;0.00;;;;;;;;5082981;28;61749;-83
2022/11/17 02:05:05;;;;;;;;;1.50;0.00;;;;;;;;5081845;28;63024;-83
2022/11/17 02:07:33;;;;;;;;;0.00;0.00;;;;;;;;5082662;28;61785;-83
2022/11/17 02:09:59;;;;;;;;;0.00;0.00;;;;;;;;5082636;28;61916;-83
2022/11/17 02:12:26;;;;;;;;;0.75;0.75;;;;;;;;5082926;27;62076;-83
2022/11/17 02:14:52;;;;;;;;;1.00;0.00;;;;;;;;5082081;28;63124;-83
2022/11/17 02:17:18;;;;;;;;;3.50;0.25;;;;;;;;5082462;28;61839;-83
2022/11/17 02:19:49;;;;;;;;;0.75;0.00;;;;;;;;5081896;28;61775;-83
2022/11/17 02:22:17;;;;;;;;;4.75;0.25;;;;;;;;5082520;28;61867;-83
2022/11/17 02:24:52;;;;;;;;;0.50;0.00;;;;;;;;5081457;28;61857;-83
2022/11/17 02:27:29;;;;;;;;;0.00;0.00;;;;;;;;5082446;27;61844;-83
2022/11/17 02:30:01;;;;;;;;;0.00;0.00;;;;;;;;5082785;28;61775;-83
2022/11/17 02:32:29;;;;;;;;;0.00;0.00;;;;;;;;5080724;27;61790;-82
2022/11/17 02:35:04;;;;;;;;;0.25;0.00;;;;;;;;5080771;28;64100;-83
2022/11/17 02:37:32;;;;;;;;;5.75;0.00;;;;;;;;5081730;28;61990;-83
2022/11/17 02:39:59;;;;;;;;;0.00;0.00;;;;;;;;5082441;28;61788;-83
2022/11/17 02:45:23;;;;;;;;;2.00;0.75;;;;;;;;5085116;28;61832;-83
2022/11/17 02:47:50;;;;;;;;;2.00;1.75;;;;;;;;5084436;27;62025;-83
2022/11/17 02:50:17;;;;;;;;;1.50;0.00;;;;;;;;5085493;28;61846;-83
2022/11/17 02:52:42;;;;;;;;;1.00;0.00;;;;;;;;5084001;27;61918;-82
2022/11/17 02:55:09;;;;;;;;;0.00;0.00;;;;;;;;5083456;27;61859;-83
2022/11/17 02:57:35;;;;;;;;;2.00;1.00;;;;;;;;5085598;27;61706;-83
2022/11/17 03:00:05;;;;;;;;;2.50;1.00;;;;;;;;5085807;27;61803;-83
2022/11/17 03:02:33;;;;;;;;;3.00;0.00;;;;;;;;5085873;28;61626;-83
2022/11/17 03:05:17;;;;;;;;;0.00;0.00;;;;;;;;5084990;27;61905;-83
2022/11/17 03:08:01;;;;;;;;;0.25;0.00;;;;;;;;5084484;27;62042;-83
2022/11/17 03:10:32;;;;;;;;;0.00;0.00;;;;;;;;5084125;27;61877;-83
2022/11/17 03:13:00;;;;;;;;;0.00;0.00;;;;;;;;5085633;27;61862;-83
2022/11/17 03:15:25;;;;;;;;;1.00;0.00;;;;;;;;5084848;28;62295;-85
2022/11/17 03:17:56;;;;;;;;;3.00;0.00;;;;;;;;5084049;27;61888;-84
2022/11/17 03:20:24;;;;;;;;;1.25;0.00;;;;;;;;5082756;27;61812;-81
2022/11/17 03:22:58;;;;;;;;;2.00;0.00;;;;;;;;5083844;28;61699;-84
2022/11/17 03:25:26;;;;;;;;;0.75;0.00;;;;;;;;5084441;27;61841;-84
2022/11/17 03:27:53;;;;;;;;;2.00;0.00;;;;;;;;5085257;27;61870;-84
2022/11/17 03:30:21;;;;;;;;;0.00;0.00;;;;;;;;5083511;28;61816;-84
2022/11/17 03:32:49;;;;;;;;;0.75;0.00;;;;;;;;5084102;27;61827;-84
2022/11/17 03:35:17;;;;;;;;;1.00;0.00;;;;;;;;5083827;27;62035;-84
2022/11/17 03:37:45;;;;;;;;;0.00;0.00;;;;;;;;5084617;27;61884;-84
2022/11/17 03:40:12;;;;;;;;;0.00;0.00;;;;;;;;5085314;27;61836;-84
2022/11/17 03:42:40;;;;;;;;;1.75;0.75;;;;;;;;5083787;27;61930;-84
2022/11/17 03:45:10;;;;;;;;;0.75;0.00;;;;;;;;5083007;28;64560;-84
2022/11/17 03:47:35;;;;;;;;;0.00;0.00;;;;;;;;5084894;27;62300;-85
2022/11/17 03:50:13;;;;;;;;;0.00;0.00;;;;;;;;5084162;27;61772;-85
2022/11/17 03:52:39;;;;;;;;;0.00;0.00;;;;;;;;5082251;27;61796;-84
2022/11/17 03:55:05;;;;;;;;;0.00;0.00;;;;;;;;5082536;27;61949;-84
2022/11/17 03:57:30;;;;;;;;;0.00;0.00;;;;;;;;5084703;27;62347;-85
2022/11/17 03:59:57;;;;;;;;;2.00;0.00;;;;;;;;5084963;28;61923;-84
2022/11/17 04:02:23;;;;;;;;;1.00;0.00;;;;;;;;5084852;28;61772;-85
2022/11/17 04:05:04;;;;;;;;;0.75;0.00;;;;;;;;5081898;27;64327;-84
2022/11/17 04:07:30;;;;;;;;;0.25;0.00;;;;;;;;5084006;27;61803;-84
2022/11/17 04:09:55;;;;;;;;;0.00;0.00;;;;;;;;5084703;28;61927;-84
2022/11/17 04:17:48;;;;;;;;;3.50;0.00;;;;;;;;5084426;28;62033;-84
2022/11/17 04:20:14;;;;;;;;;1.00;0.00;;;;;;;;5082434;28;61826;-84
2022/11/17 04:22:39;;;;;;;;;0.00;0.00;;;;;;;;5083785;28;62201;-84
2022/11/17 04:25:04;;;;;;;;;0.00;0.00;;;;;;;;5082327;28;61866;-84
2022/11/17 04:30:14;;;;;;;;;0.00;0.00;;;;;;;;5084267;28;61716;-84
2022/11/17 04:32:39;;;;;;;;;0.00;0.00;;;;;;;;5084181;28;61757;-84
2022/11/17 04:35:04;;;;;;;;;0.00;0.00;;;;;;;;5081688;28;64477;-84
2022/11/17 04:37:29;;;;;;;;;0.00;0.00;;;;;;;;5083928;28;61840;-84
2022/11/17 04:39:55;;;;;;;;;0.00;0.00;;;;;;;;5082840;28;61961;-84
2022/11/17 04:42:20;;;;;;;;;0.00;0.00;;;;;;;;5083026;28;61919;-86
2022/11/17 04:44:45;;;;;;;;;0.00;0.00;;;;;;;;5081354;28;63276;-84
2022/11/17 04:47:10;;;;;;;;;0.00;0.00;;;;;;;;5084118;28;61897;-84
2022/11/17 04:49:36;;;;;;;;;0.00;0.00;;;;;;;;5081039;28;61818;-84
2022/11/17 04:52:01;;;;;;;;;0.00;0.00;;;;;;;;5083941;28;61752;-84
2022/11/17 04:54:26;;;;;;;;;0.00;0.00;;;;;;;;5081372;28;63263;-84
2022/11/17 04:56:52;;;;;;;;;0.00;0.00;;;;;;;;5082384;27;61992;-84
2022/11/17 04:59:17;;;;;;;;;0.00;0.00;;;;;;;;5084001;28;61739;-84
2022/11/17 05:01:43;;;;;;;;;0.25;0.00;;;;;;;;5083938;27;61910;-83
2022/11/17 05:04:10;;;;;;;;;0.00;0.00;;;;;;;;5082723;28;62903;-84
2022/11/17 05:06:36;;;;;;;;;0.00;0.00;;;;;;;;5083711;28;61936;-84
2022/11/17 05:09:04;;;;;;;;;0.25;0.00;;;;;;;;5083204;27;61985;-84
2022/11/17 05:14:15;;;;;;;;;0.00;0.00;;;;;;;;5082973;28;61826;-83
2022/11/17 05:19:26;;;;;;;;;0.00;0.00;;;;;;;;5083373;28;61743;-84
2022/11/17 05:21:52;;;;;;;;;0.00;0.00;;;;;;;;5082217;28;62081;-83
2022/11/17 05:24:17;;;;;;;;;0.50;0.50;;;;;;;;5080907;27;64383;-83
2022/11/17 05:26:43;;;;;;;;;0.00;0.00;;;;;;;;5081745;27;61813;-84
2022/11/17 05:29:10;;;;;;;;;0.00;0.00;;;;;;;;5083657;28;62029;-83
2022/11/17 05:31:35;;;;;;;;;0.00;0.00;;;;;;;;5083100;27;61799;-83
2022/11/17 05:34:01;;;;;;;;;0.00;0.00;;;;;;;;5082496;28;62731;-83
2022/11/17 05:36:27;;;;;;;;;0.00;0.00;;;;;;;;5081743;27;61820;-83
2022/11/17 05:38:53;;;;;;;;;0.00;0.00;;;;;;;;5083021;28;61920;-83
2022/11/17 05:41:18;;;;;;;;;0.00;0.00;;;;;;;;5083585;27;61908;-83
2022/11/17 05:43:44;;;;;;;;;0.00;0.00;;;;;;;;5082377;28;62653;-83
2022/11/17 05:46:09;;;;;;;;;1.00;0.00;;;;;;;;5082572;28;61864;-83
2022/11/17 05:48:35;;;;;;;;;0.00;0.00;;;;;;;;5082777;27;61978;-83
2022/11/17 05:51:00;;;;;;;;;1.00;0.00;;;;;;;;5081374;28;62169;-83
2022/11/17 05:53:27;;;;;;;;;0.25;0.00;;;;;;;;5080462;27;64448;-83
2022/11/17 05:56:04;;;;;;;;;1.00;0.00;;;;;;;;5080855;28;61743;-83
2022/11/17 05:58:32;;;;;;;;;0.00;0.00;;;;;;;;5083049;28;62010;-83
2022/11/17 06:00:58;;;;;;;;;0.00;0.00;;;;;;;;5081240;27;61763;-83
2022/11/17 06:03:32;;;;;;;;;0.50;0.00;;;;;;;;5082028;28;63221;-83
2022/11/17 06:05:57;;;;;;;;;0.00;0.00;;;;;;;;5082677;27;61884;-84
2022/11/17 06:08:23;;;;;;;;;0.00;0.00;;;;;;;;5082477;28;61859;-84
2022/11/17 06:10:48;;;;;;;;;0.00;0.00;;;;;;;;5081515;27;61855;-85
2022/11/17 06:13:13;;;;;;;;;4.00;0.00;;;;;;;;5082246;28;61849;-85
2022/11/17 06:15:39;;;;;;;;;0.25;0.00;;;;;;;;5081096;27;61902;-84
2022/11/17 06:18:13;;;;;;;;;0.00;0.00;;;;;;;;5083795;28;61865;-84
2022/11/17 06:20:40;;;;;;;;;0.00;0.00;;;;;;;;5082358;28;62028;-83
2022/11/17 06:23:06;;;;;;;;;0.00;0.00;;;;;;;;5080122;27;61809;-83
2022/11/17 06:25:34;;;;;;;;;0.75;0.00;;;;;;;;5081120;28;61736;-85
2022/11/17 06:28:01;;;;;;;;;0.00;0.00;;;;;;;;5082195;27;62084;-83
2022/11/17 06:30:27;;;;;;;;;0.00;0.00;;;;;;;;5080765;27;62150;-83
2022/11/17 06:32:53;;;;;;;;;1.00;0.00;;;;;;;;5080552;27;62063;-86
2022/11/17 06:35:18;;;;;;;;;0.00;0.00;;;;;;;;5081053;28;61727;-83
2022/11/17 06:37:43;;;;;;;;;0.00;0.00;;;;;;;;5081012;27;61836;-82
2022/11/17 06:40:10;;;;;;;;;1.00;0.00;;;;;;;;5081514;27;62227;-84
2022/11/17 06:45:21;;;;;;;;;0.00;0.00;;;;;;;;5080265;28;61791;-83
2022/11/17 06:47:46;;;;;;;;;0.00;0.00;;;;;;;;5083622;27;61757;-84
2022/11/17 06:50:11;;;;;;;;;0.00;0.00;;;;;;;;5081952;28;61771;-85
2022/11/17 06:52:37;;;;;;;;;0.00;0.00;;;;;;;;5080542;28;62652;-84
2022/11/17 06:55:02;;;;;;;;;0.00;0.00;;;;;;;;5079791;28;62047;-83
2022/11/17 06:57:29;;;;;;;;;0.00;0.00;;;;;;;;5079854;28;61952;-83
2022/11/17 06:59:54;;;;;;;;;2.00;0.25;;;;;;;;5081320;28;61712;-83
2022/11/17 07:02:19;;;;;;;;;0.00;0.00;;;;;;;;5081142;28;61623;-82
2022/11/17 07:04:44;;;;;;;;;2.00;0.00;;;;;;;;5081666;28;61868;-83
2022/11/17 07:07:11;;;;;;;;;1.00;0.00;;;;;;;;5081207;28;62306;-82
2022/11/17 07:09:36;;;;;;;;;0.00;0.00;;;;;;;;5081641;28;61823;-83
2022/11/17 07:12:01;;;;;;;;;1.25;0.25;;;;;;;;5081051;28;61788;-83
2022/11/17 07:14:26;;;;;;;;;0.75;0.00;;;;;;;;5081492;28;61894;-84
2022/11/17 07:16:52;;;;;;;;;0.50;0.00;;;;;;;;5080376;28;62249;-82
2022/11/17 07:19:17;;;;;;;;;3.00;1.00;;;;;;;;5081568;28;61883;-83
2022/11/17 07:21:42;;;;;;;;;2.00;0.00;;;;;;;;5079055;28;62077;-84
2022/11/17 07:24:08;;;;;;;;;0.00;0.00;;;;;;;;5078969;27;61834;-83
2022/11/17 07:26:33;;;;;;;;;2.25;0.75;;;;;;;;5079705;28;61966;-83
2022/11/17 07:28:58;;;;;;;;;0.00;0.00;;;;;;;;5082395;28;61746;-83
2022/11/17 07:31:23;;;;;;;;;3.00;0.75;;;;;;;;5082645;27;63561;-81
2022/11/17 07:33:49;;;;;;;;;1.00;0.00;;;;;;;;5084162;27;62224;-82
2022/11/17 07:36:15;;;;;;;;;2.00;0.75;;;;;;;;5084433;27;62109;-83
2022/11/17 07:38:40;;;;;;;;;4.00;0.00;;;;;;;;5084803;27;61945;-83
2022/11/17 07:41:06;;;;;;;;;1.00;0.00;;;;;;;;5082531;27;62220;-82
2022/11/17 07:43:32;;;;;;;;;0.00;0.00;;;;;;;;5083983;27;61890;-82
2022/11/17 07:45:58;;;;;;;;;0.00;0.00;;;;;;;;5084241;27;61949;-82
2022/11/17 07:48:23;;;;;;;;;0.50;0.00;;;;;;;;5084083;27;62050;-82
2022/11/17 07:50:49;;;;;;;;;0.75;0.00;;;;;;;;5083750;27;62772;-84
2022/11/17 07:53:14;;;;;;;;;1.00;1.00;;;;;;;;5081990;27;62112;-82
2022/11/17 07:55:39;;;;;;;;;2.00;0.00;;;;;;;;5083961;28;62050;-83
2022/11/17 07:58:05;;;;;;;;;0.75;0.00;;;;;;;;5082963;27;61736;-82
2022/11/17 08:00:32;;;;;;;;;1.25;1.00;;;;;;;;5081519;28;61997;-82
2022/11/17 08:03:02;;;;;;;;;0.00;0.00;;;;;;;;5084000;28;62269;-81
2022/11/17 08:05:29;;;;;;;;;1.00;0.00;;;;;;;;5082816;27;62011;-80
2022/11/17 08:07:55;;;;;;;;;2.00;0.25;;;;;;;;5084146;27;61840;-81
2022/11/17 08:10:20;;;;;;;;;0.50;0.00;;;;;;;;5083505;28;61847;-82
2022/11/17 08:12:46;;;;;;;;;4.75;0.00;;;;;;;;5082682;27;61937;-80
2022/11/17 08:15:11;;;;;;;;;1.50;0.00;;;;;;;;5082823;27;62060;-81
2022/11/17 08:17:36;;;;;;;;;2.00;0.50;;;;;;;;5083206;27;61903;-81
2022/11/17 08:20:02;;;;;;;;;0.00;0.00;;;;;;;;5082121;27;61797;-81
2022/11/17 08:22:28;;;;;;;;;0.00;0.00;;;;;;;;5102435;27;61762;-81
2022/11/17 08:24:53;;;;;;;;;0.75;0.75;;;;;;;;5104839;27;61976;-80
2022/11/17 08:27:18;;;;;;;;;0.00;0.00;;;;;;;;5098255;27;61745;-80
2022/11/17 08:29:43;;;;;;;;;2.25;0.00;;;;;;;;5082978;27;62695;-80
2022/11/17 08:32:09;;;;;;;;;0.00;0.00;;;;;;;;5083754;28;61736;-80
2022/11/17 08:34:34;;;;;;;;;1.00;0.75;;;;;;;;5083324;28;61871;-81
2022/11/17 08:36:59;;;;;;;;;3.00;0.00;;;;;;;;5084174;28;61763;-80
2022/11/17 08:39:25;;;;;;;;;1.50;0.00;;;;;;;;5077939;28;62004;-80
2022/11/17 08:41:51;;;;;;;;;0.00;0.00;;;;;;;;5084109;28;61994;-80
2022/11/17 08:44:16;;;;;;;;;0.00;0.00;;;;;;;;5083748;27;62134;-82
2022/11/17 08:46:41;;;;;;;;;0.00;0.00;;;;;;;;5082590;27;61766;-82
2022/11/17 08:49:07;;;;;;;;;0.00;0.00;;;;;;;;5083085;27;61844;-82
2022/11/17 08:51:32;;;;;;;;;0.00;0.00;;;;;;;;5083573;28;61903;-82
2022/11/17 08:53:57;;;;;;;;;0.00;0.00;;;;;;;;5082429;27;62202;-82
2022/11/17 08:56:23;;;;;;;;;2.25;0.00;;;;;;;;5083429;28;61947;-82
2022/11/17 08:58:48;;;;;;;;;0.00;0.00;;;;;;;;5083232;28;61800;-82
2022/11/17 09:01:14;;;;;;;;;2.00;0.50;;;;;;;;5082403;27;61883;-82
2022/11/17 09:03:41;;;;;;;;;4.50;1.00;;;;;;;;5083739;28;62146;-81
2022/11/17 09:06:06;;;;;;;;;2.00;1.00;;;;;;;;5084006;27;61937;-82
2022/11/17 09:08:32;;;;;;;;;1.50;1.50;;;;;;;;5080616;27;61932;-82
2022/11/17 09:10:57;;;;;;;;;1.00;0.00;;;;;;;;5083593;28;62178;-82
2022/11/17 09:13:22;;;;;;;;;4.25;1.00;;;;;;;;5083595;28;61866;-82
2022/11/17 09:15:48;;;;;;;;;2.75;0.75;;;;;;;;5082233;27;61823;-82
2022/11/17 09:18:13;;;;;;;;;3.00;0.75;;;;;;;;5082917;27;62019;-83
2022/11/17 09:20:38;;;;;;;;;1.00;0.00;;;;;;;;5081488;28;61960;-82
2022/11/17 09:23:04;;;;;;;;;2.50;0.50;;;;;;;;5082934;27;61923;-82
2022/11/17 09:25:29;;;;;;;;;0.50;0.25;;;;;;;;5082026;28;61922;-82
2022/11/17 09:27:54;;;;;;;;;3.75;1.50;;;;;;;;5081444;27;64381;-82
2022/11/17 09:30:21;;;;;;;;;3.00;1.00;;;;;;;;5083372;28;61819;-82
2022/11/17 09:32:49;;;;;;;;;5.00;1.25;;;;;;;;5083337;28;61781;-82
2022/11/17 09:35:15;;;;;;;;;4.50;2.00;;;;;;;;5081935;27;62207;-82
2022/11/17 09:37:40;;;;;;;;;1.50;1.00;;;;;;;;5081761;28;62794;-82
2022/11/17 09:40:06;;;;;;;;;3.00;1.00;;;;;;;;5083201;27;61737;-82
2022/11/17 09:42:36;;;;;;;;;1.00;0.50;;;;;;;;5082917;28;61862;-82
2022/11/17 09:45:06;;;;;;;;;3.00;1.00;;;;;;;;5081527;28;61701;-82
2022/11/17 09:47:34;;;;;;;;;2.00;1.00;;;;;;;;5082118;28;61945;-82
2022/11/17 09:50:02;;;;;;;;;3.00;2.00;;;;;;;;5080919;27;62048;-82
2022/11/17 09:52:27;;;;;;;;;7.75;3.00;;;;;;;;5079900;27;62004;-82
2022/11/17 09:55:05;;;;;;;;;2.25;1.00;;;;;;;;5081222;27;61753;-82
2022/11/17 09:57:39;;;;;;;;;3.00;2.00;;;;;;;;5082344;28;62740;-82
2022/11/17 10:00:06;;;;;;;;;2.00;0.00;;;;;;;;5081211;27;61907;-82
2022/11/17 10:02:32;;;;;;;;;2.00;0.25;;;;;;;;5081212;28;61893;-82
2022/11/17 10:04:58;;;;;;;;;2.75;1.00;;;;;;;;5081379;28;61875;-82
2022/11/17 10:07:24;;;;;;;;;2.00;0.00;;;;;;;;5081108;28;61741;-81
2022/11/17 10:09:51;;;;;;;;;2.00;0.25;;;;;;;;5082169;28;62260;-82
2022/11/17 10:12:16;;;;;;;;;1.00;1.00;;;;;;;;5082545;28;61734;-82
2022/11/17 10:14:41;;;;;;;;;2.00;0.50;;;;;;;;5082542;27;61758;-82
2022/11/17 10:17:07;;;;;;;;;1.75;0.75;;;;;;;;5082259;28;61904;-82
2022/11/17 10:19:35;;;;;;;;;0.25;0.25;;;;;;;;5081799;27;61831;-82
2022/11/17 10:22:01;;;;;;;;;4.00;2.00;;;;;;;;5082239;27;61869;-82
2022/11/17 10:24:46;;;;;;;;;3.00;3.00;;;;;;;;5080884;27;61964;-82
2022/11/17 10:27:21;;;;;;;;;1.00;1.00;;;;;;;;5081877;28;61914;-82
2022/11/17 10:30:00;;;;;;;;;2.25;1.00;;;;;;;;5082153;28;61659;-82
2022/11/17 10:32:27;;;;;;;;;2.50;0.75;;;;;;;;5081176;27;61738;-82
2022/11/17 10:34:53;;;;;;;;;3.25;2.00;;;;;;;;5080738;28;61673;-82
2022/11/17 10:37:29;;;;;;;;;2.25;1.75;;;;;;;;5081433;28;61702;-82
2022/11/17 10:40:14;;;;;;;;;3.50;1.00;;;;;;;;5082155;27;61768;-82
2022/11/17 10:42:41;;;;;;;;;1.50;0.00;;;;;;;;5081537;28;61732;-82
2022/11/17 10:45:15;;;;;;;;;0.00;0.00;;;;;;;;5082263;28;61962;-82
2022/11/17 10:47:40;;;;;;;;;2.25;0.00;;;;;;;;5080113;28;63901;-82
2022/11/17 10:50:21;;;;;;;;;2.50;1.00;;;;;;;;5081300;28;61748;-82
2022/11/17 10:52:46;;;;;;;;;2.75;1.00;;;;;;;;5080394;27;61780;-82
2022/11/17 10:55:19;;;;;;;;;0.50;0.00;;;;;;;;5082061;28;61875;-82
2022/11/17 10:57:47;;;;;;;;;0.50;0.50;;;;;;;;5079793;28;61899;-82
2022/11/17 11:00:23;;;;;;;;;0.75;0.50;;;;;;;;5082228;27;61871;-82
2022/11/17 11:02:48;;;;;;;;;2.25;1.00;;;;;;;;5083641;28;61798;-82
2022/11/17 11:05:14;;;;;;;;;1.75;1.00;;;;;;;;5084739;27;61797;-82
2022/11/17 11:07:40;;;;;;;;;0.00;0.00;;;;;;;;5084340;27;63141;-82
2022/11/17 11:10:06;;;;;;;;;0.00;0.00;;;;;;;;5083992;27;61676;-82
2022/11/17 11:12:37;;;;;;;;;1.50;0.50;;;;;;;;5085675;28;61796;-83
2022/11/17 11:15:04;;;;;;;;;3.00;0.00;;;;;;;;5085333;28;61827;-82
2022/11/17 11:17:29;;;;;;;;;1.50;0.00;;;;;;;;5085036;27;61798;-82
2022/11/17 11:19:55;;;;;;;;;1.00;0.00;;;;;;;;5082725;27;61913;-82
2022/11/17 11:22:26;;;;;;;;;3.25;1.00;;;;;;;;5085532;28;61761;-82
2022/11/17 11:25:10;;;;;;;;;1.00;0.00;;;;;;;;5085311;27;61755;-82
2022/11/17 11:27:54;;;;;;;;;2.25;0.00;;;;;;;;5084814;28;61946;-82
2022/11/17 11:30:19;;;;;;;;;0.00;0.00;;;;;;;;5083722;27;61903;-82
2022/11/17 11:32:45;;;;;;;;;1.25;0.00;;;;;;;;5083586;27;61886;-83
2022/11/17 11:35:29;;;;;;;;;1.50;1.00;;;;;;;;5083346;27;61848;-83
2022/11/17 11:38:03;;;;;;;;;1.00;0.00;;;;;;;;5083952;27;62958;-82
2022/11/17 11:40:30;;;;;;;;;0.75;0.25;;;;;;;;5085140;28;61784;-82
2022/11/17 11:42:56;;;;;;;;;0.50;0.50;;;;;;;;5083342;28;61975;-82
2022/11/17 11:45:35;;;;;;;;;2.25;0.00;;;;;;;;5085280;28;61688;-83
2022/11/17 11:48:06;;;;;;;;;0.75;0.00;;;;;;;;5083645;27;61826;-82
2022/11/17 11:50:39;;;;;;;;;6.75;0.00;;;;;;;;5084196;27;61782;-82
2022/11/17 11:53:10;;;;;;;;;1.75;0.00;;;;;;;;5084435;28;61764;-82
2022/11/17 11:55:36;;;;;;;;;0.00;0.00;;;;;;;;5084936;27;61907;-82
2022/11/17 11:58:06;;;;;;;;;1.00;0.00;;;;;;;;5083963;27;62745;-82
2022/11/17 12:00:32;;;;;;;;;0.00;0.00;;;;;;;;5084468;28;61693;-83
2022/11/17 12:03:03;;;;;;;;;1.00;0.00;;;;;;;;5084188;27;61755;-82
2022/11/17 12:05:36;;;;;;;;;1.00;0.25;;;;;;;;5083463;27;61863;-82
2022/11/17 12:08:15;;;;;;;;;0.00;0.00;;;;;;;;5083606;28;61756;-82
2022/11/17 12:10:46;;;;;;;;;0.00;0.00;;;;;;;;5084633;27;61834;-82
2022/11/17 12:13:13;;;;;;;;;1.00;0.00;;;;;;;;5084126;28;61750;-82
2022/11/17 12:15:39;;;;;;;;;0.00;0.00;;;;;;;;5084200;27;61702;-82
2022/11/17 12:18:12;;;;;;;;;3.00;0.50;;;;;;;;5082976;27;62580;-82
2022/11/17 12:20:37;;;;;;;;;0.25;0.25;;;;;;;;5082068;27;61906;-82
2022/11/17 12:23:19;;;;;;;;;2.00;0.00;;;;;;;;5083745;28;62038;-82
2022/11/17 12:25:48;;;;;;;;;0.50;0.00;;;;;;;;5082631;27;62020;-82
2022/11/17 12:28:25;;;;;;;;;0.00;0.00;;;;;;;;5083421;27;62565;-82
2022/11/17 12:30:51;;;;;;;;;0.25;0.25;;;;;;;;5084316;28;61946;-82
2022/11/17 12:33:17;;;;;;;;;1.50;1.00;;;;;;;;5082686;28;61768;-82
2022/11/17 12:35:42;;;;;;;;;0.00;0.00;;;;;;;;5084188;27;61852;-82
2022/11/17 12:38:16;;;;;;;;;0.00;0.00;;;;;;;;5083233;28;61913;-82
2022/11/17 12:40:42;;;;;;;;;2.00;0.75;;;;;;;;5082990;27;61788;-82
2022/11/17 12:43:26;;;;;;;;;0.00;0.00;;;;;;;;5083677;28;62315;-83
2022/11/17 12:45:54;;;;;;;;;0.50;0.00;;;;;;;;5084110;28;61755;-82
2022/11/17 12:48:23;;;;;;;;;0.00;0.00;;;;;;;;5082025;27;63496;-82
2022/11/17 12:50:54;;;;;;;;;0.75;0.00;;;;;;;;5083735;27;61775;-82
2022/11/17 12:53:30;;;;;;;;;0.50;0.00;;;;;;;;5083531;28;61887;-82
2022/11/17 12:56:04;;;;;;;;;0.00;0.00;;;;;;;;5083770;27;61725;-82
2022/11/17 12:58:29;;;;;;;;;1.00;0.00;;;;;;;;5083174;28;62630;-82
2022/11/17 13:00:57;;;;;;;;;0.00;0.00;;;;;;;;5083559;27;61828;-82
2022/11/17 13:03:41;;;;;;;;;0.00;0.00;;;;;;;;5082747;28;61912;-82
2022/11/17 13:06:07;;;;;;;;;0.50;0.00;;;;;;;;5083521;28;61794;-82
2022/11/17 13:08:33;;;;;;;;;0.00;0.00;;;;;;;;5081483;28;63835;-83
2022/11/17 13:11:03;;;;;;;;;0.00;0.00;;;;;;;;5082189;27;61854;-82
2022/11/17 13:13:28;;;;;;;;;0.00;0.00;;;;;;;;5083762;28;61950;-83
2022/11/17 13:15:58;;;;;;;;;0.00;0.00;;;;;;;;5083303;28;61794;-83
2022/11/17 13:18:27;;;;;;;;;0.67;0.00;;;;;;;;5082431;27;62014;-77
2022/11/17 13:20:52;;;;;;;;;0.00;0.00;;;;;;;;5083682;27;61713;-83
2022/11/17 13:23:20;;;;;;;;;0.00;0.00;;;;;;;;5082947;27;61673;-82
2022/11/17 13:25:45;;;;;;;;;0.00;0.00;;;;;;;;5080916;27;62089;-83
2022/11/17 13:28:26;;;;;;;;;0.67;0.00;;;;;;;;5082358;27;62727;-83
2022/11/17 13:30:52;;;;;;;;;0.00;0.00;;;;;;;;5083088;27;61788;-83
2022/11/17 13:33:20;;;;;;;;;0.00;0.00;;;;;;;;5081544;27;61796;-83
2022/11/17 13:35:45;;;;;;;;;0.00;0.00;;;;;;;;5082001;28;61992;-83
2022/11/17 13:38:11;;;;;;;;;0.00;0.00;;;;;;;;5081887;28;61700;-83
2022/11/17 13:40:36;;;;;;;;;0.00;0.00;;;;;;;;5083090;28;61957;-83
2022/11/17 13:43:03;;;;;;;;;0.00;0.00;;;;;;;;5083393;28;62089;-83
2022/11/17 13:45:28;;;;;;;;;0.00;0.00;;;;;;;;5081559;27;61784;-83
2022/11/17 13:47:53;;;;;;;;;0.00;0.00;;;;;;;;5080937;28;62073;-83
2022/11/17 13:50:21;;;;;;;;;1.00;0.00;;;;;;;;5082408;28;61910;-83
2022/11/17 13:52:52;;;;;;;;;0.00;0.00;;;;;;;;5082723;28;61758;-82
2022/11/17 13:55:19;;;;;;;;;2.00;0.00;;;;;;;;5081197;27;62167;-83
2022/11/17 13:58:01;;;;;;;;;3.67;0.00;;;;;;;;5082428;27;61727;-82
2022/11/17 14:00:26;;;;;;;;;0.00;0.00;;;;;;;;5082279;27;61881;-83
2022/11/17 14:02:56;;;;;;;;;1.00;0.00;;;;;;;;5082878;28;61834;-83
2022/11/17 14:05:26;;;;;;;;;1.00;0.00;;;;;;;;5082684;28;62378;-83
2022/11/17 14:07:52;;;;;;;;;0.00;0.00;;;;;;;;5081694;27;62854;-82
2022/11/17 14:10:21;;;;;;;;;0.00;0.00;;;;;;;;5081528;28;61835;-82
2022/11/17 14:12:46;;;;;;;;;0.00;0.00;;;;;;;;5081347;28;61807;-82
2022/11/17 14:15:12;;;;;;;;;0.00;0.00;;;;;;;;5080830;27;62062;-82
2022/11/17 14:17:38;;;;;;;;;1.00;0.00;;;;;;;;5082378;28;62616;-83
2022/11/17 14:20:35;;;;;;;;;0.00;0.00;;;;;;;;5082138;28;61717;-82
2022/11/17 14:23:03;;;;;;;;;0.00;0.00;;;;;;;;5039682;28;61935;-82
2022/11/17 14:25:28;;;;;;;;;1.00;0.00;;;;;;;;5039507;28;61993;-83
2022/11/17 14:27:54;;;;;;;;;0.75;0.00;;;;;;;;5038748;28;61830;-82
2022/11/17 14:30:20;;;;;;;;;0.75;0.00;;;;;;;;5039062;28;61918;-82
2022/11/17 14:32:45;;;;;;;;;1.75;0.00;;;;;;;;5023846;28;62037;-82
2022/11/17 14:35:12;;;;;;;;;4.00;0.00;;;;;;;;5019597;28;61939;-82
2022/11/17 14:37:37;;;;;;;;;0.25;0.25;;;;;;;;5020419;28;62313;-82
2022/11/17 14:40:04;;;;;;;;;1.00;1.00;;;;;;;;5022063;28;62106;-81
2022/11/17 14:42:30;;;;;;;;;2.50;1.00;;;;;;;;5021755;28;61999;-81
2022/11/17 14:44:55;;;;;;;;;0.00;0.00;;;;;;;;5022589;28;61770;-81
2022/11/17 14:47:20;;;;;;;;;0.00;0.00;;;;;;;;5021754;28;62593;-82
2022/11/17 14:49:45;;;;;;;;;1.00;0.00;;;;;;;;5004736;28;61924;-82
2022/11/17 14:52:11;;;;;;;;;0.00;0.00;;;;;;;;5005821;28;62065;-82
2022/11/17 14:54:36;;;;;;;;;0.00;0.00;;;;;;;;5034167;28;62234;-82
2022/11/17 14:57:01;;;;;;;;;0.00;0.00;;;;;;;;5041721;28;61921;-82
2022/11/17 14:59:26;;;;;;;;;0.00;0.00;;;;;;;;5078363;27;62007;-81
2022/11/17 15:01:52;;;;;;;;;3.00;0.00;;;;;;;;5084322;27;61811;-82
2022/11/17 15:04:18;;;;;;;;;0.00;0.00;;;;;;;;5086057;27;61944;-81
2022/11/17 15:06:43;;;;;;;;;0.25;0.00;;;;;;;;5084973;27;62940;-82
2022/11/17 15:09:12;;;;;;;;;1.00;0.00;;;;;;;;5085356;27;61877;-81
2022/11/17 15:11:37;;;;;;;;;0.25;0.25;;;;;;;;5083971;27;61904;-81
2022/11/17 15:14:04;;;;;;;;;0.00;0.00;;;;;;;;5085805;28;61899;-81